createdAt,value
2023-04-16T00:01:37.786Z,102452.38
2023-04-16T00:04:04.706Z,102456.94
2023-04-16T00:06:32.096Z,102454.28
2023-04-16T00:08:58.700Z,102460.56
2023-04-16T00:11:25.414Z,102453.53
2023-04-16T00:13:52.074Z,102457.97
2023-04-16T00:16:18.702Z,102451.06
2023-04-16T00:18:45.547Z,102455.44
2023-04-16T00:21:12.401Z,102454.59
2023-04-16T00:23:38.948Z,102449.38
2023-04-16T00:26:05.501Z,102460.00
2023-04-16T00:28:32.055Z,102460.97
2023-04-16T00:31:01.594Z,102448.50
2023-04-16T00:33:30.177Z,102457.59
2023-04-16T00:35:56.821Z,102458.56
2023-04-16T00:38:23.410Z,102453.34
2023-04-16T00:40:50.132Z,102455.16
2023-04-16T00:43:23.185Z,102450.78
2023-04-16T00:45:50.806Z,102441.13
2023-04-16T00:48:17.832Z,102452.72
2023-04-16T00:50:44.477Z,102454.53
2023-04-16T00:53:11.310Z,102455.50
2023-04-16T00:55:39.384Z,102450.16
2023-04-16T00:58:06.404Z,102454.63
2023-04-16T01:00:33.021Z,102451.13
2023-04-16T01:03:00.405Z,102452.94
2023-04-16T01:05:27.175Z,102450.53
2023-04-16T01:07:53.769Z,102462.13
2023-04-16T01:10:20.408Z,102452.34
2023-04-16T01:12:46.962Z,102454.13
2023-04-16T01:15:13.538Z,102448.81
2023-04-16T01:17:40.146Z,102446.25
2023-04-16T01:20:07.072Z,102454.25
2023-04-16T01:22:33.610Z,102446.25
2023-04-16T01:25:00.139Z,102453.50
2023-04-16T01:27:27.093Z,102450.75
2023-04-16T01:29:53.710Z,102450.75
2023-04-16T01:32:20.647Z,102446.38
2023-04-16T01:34:47.282Z,102462.34
2023-04-16T01:37:13.897Z,102456.38
2023-04-16T01:39:40.498Z,102456.50
2023-04-16T01:42:07.085Z,102457.25
2023-04-16T01:44:33.740Z,102455.84
2023-04-16T01:47:00.675Z,102462.78
2023-04-16T01:49:27.481Z,102462.88
2023-04-16T01:51:53.996Z,102467.25
2023-04-16T01:54:20.642Z,102461.06
2023-04-16T01:56:47.266Z,102455.03
2023-04-16T01:59:13.853Z,102461.81
2023-04-16T02:01:40.614Z,102465.53
2023-04-16T02:04:08.228Z,102464.47
2023-04-16T02:06:34.859Z,102459.25
2023-04-16T02:09:01.448Z,102464.69
2023-04-16T02:11:28.007Z,102463.03
2023-04-16T02:13:54.537Z,102465.44
2023-04-16T02:16:21.105Z,102463.97
2023-04-16T02:18:47.684Z,102468.44
2023-04-16T02:21:14.204Z,102466.75
2023-04-16T02:23:41.445Z,102467.59
2023-04-16T02:26:08.040Z,102466.75
2023-04-16T02:28:34.595Z,102460.78
2023-04-16T02:31:01.142Z,102463.56
2023-04-16T02:33:27.717Z,102465.47
2023-04-16T02:35:54.301Z,102463.56
2023-04-16T02:38:20.835Z,102465.38
2023-04-16T02:40:47.351Z,102460.16
2023-04-16T02:43:13.896Z,102458.22
2023-04-16T02:45:40.641Z,102456.63
2023-04-16T02:48:08.807Z,102461.00
2023-04-16T02:50:35.771Z,102469.84
2023-04-16T02:53:02.380Z,102462.19
2023-04-16T02:55:29.546Z,102469.19
2023-04-16T02:57:56.178Z,102468.22
2023-04-16T03:00:22.749Z,102477.16
2023-04-16T03:02:49.442Z,102456.03
2023-04-16T03:05:16.220Z,102481.78
2023-04-16T03:07:42.757Z,102474.97
2023-04-16T03:10:10.064Z,102485.50
2023-04-16T03:12:36.642Z,102482.09
2023-04-16T03:15:03.580Z,102480.41
2023-04-16T03:17:30.266Z,102484.84
2023-04-16T03:19:57.000Z,102490.06
2023-04-16T03:22:23.615Z,102486.66
2023-04-16T03:24:50.158Z,102482.31
2023-04-16T03:27:16.808Z,102493.59
2023-04-16T03:29:43.325Z,102486.66
2023-04-16T03:32:09.880Z,102490.19
2023-04-16T03:34:37.084Z,102483.91
2023-04-16T03:37:05.589Z,102483.16
2023-04-16T03:39:33.575Z,102499.09
2023-04-16T03:42:00.214Z,102484.22
2023-04-16T03:44:26.746Z,102491.34
2023-04-16T03:46:53.376Z,102499.22
2023-04-16T03:49:20.092Z,102495.72
2023-04-16T03:51:46.788Z,102494.84
2023-04-16T03:54:13.368Z,102502.94
2023-04-16T03:56:43.261Z,102502.94
2023-04-16T03:59:10.441Z,102491.78
2023-04-16T04:01:37.238Z,102510.06
2023-04-16T04:04:04.172Z,102507.75
2023-04-16T04:06:31.173Z,102505.84
2023-04-16T04:08:57.793Z,102511.16
2023-04-16T04:11:24.452Z,102511.25
2023-04-16T04:13:51.016Z,102499.03
2023-04-16T04:16:17.639Z,102508.81
2023-04-16T04:18:44.626Z,102507.00
2023-04-16T04:21:11.350Z,102502.63
2023-04-16T04:23:38.038Z,102502.63
2023-04-16T04:26:05.703Z,102504.56
2023-04-16T04:28:33.110Z,102507.84
2023-04-16T04:30:59.783Z,102509.56
2023-04-16T04:33:26.580Z,102512.31
2023-04-16T04:35:54.335Z,102516.69
2023-04-16T04:38:22.277Z,102514.97
2023-04-16T04:40:49.015Z,102516.69
2023-04-16T04:43:15.540Z,102521.25
2023-04-16T04:45:42.117Z,102517.84
2023-04-16T04:48:08.703Z,102525.63
2023-04-16T04:50:36.201Z,102516.16
2023-04-16T04:53:04.612Z,102528.28
2023-04-16T04:55:31.186Z,102520.41
2023-04-16T04:57:57.717Z,102537.09
2023-04-16T05:00:24.262Z,102532.75
2023-04-16T05:02:52.105Z,102530.28
2023-04-16T05:05:18.869Z,102526.78
2023-04-16T05:07:45.456Z,102533.78
2023-04-16T05:10:12.019Z,102533.03
2023-04-16T05:12:40.015Z,102534.75
2023-04-16T05:15:07.278Z,102528.59
2023-04-16T05:17:33.834Z,102532.94
2023-04-16T05:20:00.768Z,102536.47
2023-04-16T05:22:27.342Z,102545.28
2023-04-16T05:24:53.892Z,102546.34
2023-04-16T05:27:20.497Z,102540.16
2023-04-16T05:29:47.056Z,102554.97
2023-04-16T05:32:13.669Z,102549.75
2023-04-16T05:34:40.196Z,102547.94
2023-04-16T05:37:06.707Z,102549.00
2023-04-16T05:39:33.255Z,102545.38
2023-04-16T05:41:59.847Z,102546.13
2023-04-16T05:44:26.457Z,102535.19
2023-04-16T05:46:53.067Z,102551.16
2023-04-16T05:49:20.237Z,102552.75
2023-04-16T05:51:47.370Z,102547.44
2023-04-16T05:54:13.993Z,102555.25
2023-04-16T05:56:41.100Z,102557.72
2023-04-16T05:59:07.833Z,102560.38
2023-04-16T06:01:34.669Z,102559.41
2023-04-16T06:04:01.331Z,102556.75
2023-04-16T06:06:28.058Z,102559.31
2023-04-16T06:08:54.617Z,102553.03
2023-04-16T06:11:21.303Z,102559.97
2023-04-16T06:13:47.840Z,102561.66
2023-04-16T06:16:14.560Z,102566.13
2023-04-16T06:18:41.115Z,102566.88
2023-04-16T06:21:07.733Z,102563.28
2023-04-16T06:23:34.295Z,102566.03
2023-04-16T06:26:00.882Z,102562.53
2023-04-16T06:28:27.427Z,102569.53
2023-04-16T06:30:54.005Z,102582.69
2023-04-16T06:33:20.674Z,102581.75
2023-04-16T06:35:47.300Z,102581.03
2023-04-16T06:38:14.390Z,102595.91
2023-04-16T06:40:41.148Z,102586.97
2023-04-16T06:43:07.879Z,102583.56
2023-04-16T06:45:34.773Z,102595.91
2023-04-16T06:48:03.289Z,102594.84
2023-04-16T06:50:30.011Z,102600.16
2023-04-16T06:52:56.913Z,102591.53
2023-04-16T06:55:23.480Z,102601.22
2023-04-16T06:57:50.051Z,102605.59
2023-04-16T07:00:16.877Z,102602.19
2023-04-16T07:02:43.784Z,102613.47
2023-04-16T07:05:10.915Z,102612.50
2023-04-16T07:07:37.487Z,102595.50
2023-04-16T07:10:05.824Z,102613.34
2023-04-16T07:12:33.311Z,102609.94
2023-04-16T07:14:59.910Z,102615.16
2023-04-16T07:17:26.513Z,102618.78
2023-04-16T07:19:53.113Z,102618.69
2023-04-16T07:22:20.364Z,102619.31
2023-04-16T07:24:46.965Z,102620.38
2023-04-16T07:27:13.683Z,102625.69
2023-04-16T07:29:40.297Z,102625.59
2023-04-16T07:32:09.267Z,102631.03
2023-04-16T07:34:36.032Z,102623.16
2023-04-16T07:37:02.601Z,102624.84
2023-04-16T07:39:29.157Z,102626.44
2023-04-16T07:41:55.728Z,102625.59
2023-04-16T07:44:22.461Z,102630.81
2023-04-16T07:46:49.081Z,102633.69
2023-04-16T07:49:15.671Z,102640.59
2023-04-16T07:51:42.554Z,102645.06
2023-04-16T07:54:10.018Z,102648.59
2023-04-16T07:56:36.581Z,102651.25
2023-04-16T07:59:14.926Z,102653.16
2023-04-16T08:01:48.340Z,102661.88
2023-04-16T08:04:17.484Z,102655.06
2023-04-16T08:06:44.110Z,102662.84
2023-04-16T08:09:10.915Z,102665.41
2023-04-16T08:11:37.743Z,102668.06
2023-04-16T08:14:04.323Z,102667.22
2023-04-16T08:16:30.833Z,102666.66
2023-04-16T08:18:57.480Z,102668.25
2023-04-16T08:21:24.060Z,102671.78
2023-04-16T08:23:50.670Z,102682.31
2023-04-16T08:26:17.545Z,102681.34
2023-04-16T08:28:44.163Z,102678.81
2023-04-16T08:31:11.234Z,102683.06
2023-04-16T08:33:37.916Z,102668.25
2023-04-16T08:36:04.698Z,102680.41
2023-04-16T08:38:31.212Z,102674.34
2023-04-16T08:41:03.856Z,102677.19
2023-04-16T08:43:34.159Z,102679.97
2023-04-16T08:46:01.231Z,102682.09
2023-04-16T08:48:33.918Z,102675.19
2023-04-16T08:51:01.990Z,102683.16
2023-04-16T08:53:48.487Z,102690.28
2023-04-16T08:56:19.422Z,102667.19
2023-04-16T08:58:47.645Z,102686.97
2023-04-16T09:01:15.413Z,102687.28
2023-04-16T09:03:42.211Z,102690.78
2023-04-16T09:06:09.994Z,102703.22
2023-04-16T09:08:38.160Z,102695.47
2023-04-16T09:11:04.881Z,102700.66
2023-04-16T09:13:32.058Z,102700.81
2023-04-16T09:15:59.789Z,102702.81
2023-04-16T09:18:28.125Z,102714.81
2023-04-16T09:20:56.398Z,102712.28
2023-04-16T09:23:23.124Z,102701.84
2023-04-16T09:25:49.659Z,102712.38
2023-04-16T09:28:42.245Z,102714.19
2023-04-16T09:31:16.605Z,102717.81
2023-04-16T09:33:44.384Z,102719.72
2023-04-16T09:36:11.114Z,102712.69
2023-04-16T09:38:52.227Z,102717.06
2023-04-16T09:41:19.508Z,102721.41
2023-04-16T09:43:56.613Z,102725.88
2023-04-16T09:46:25.208Z,102724.16
2023-04-16T09:48:52.097Z,102725.03
2023-04-16T09:51:18.709Z,102725.97
2023-04-16T09:53:45.679Z,102731.28
2023-04-16T09:56:13.562Z,102730.34
2023-04-16T09:58:40.348Z,102730.34
2023-04-16T10:01:11.761Z,102740.97
2023-04-16T10:03:41.885Z,102740.97
2023-04-16T10:06:16.264Z,102740.13
2023-04-16T10:08:50.257Z,102739.19
2023-04-16T10:11:18.011Z,102742.78
2023-04-16T10:13:44.608Z,102738.41
2023-04-16T10:16:11.439Z,102744.28
2023-04-16T10:18:40.084Z,102745.16
2023-04-16T10:21:07.566Z,102749.38
2023-04-16T10:23:34.418Z,102745.06
2023-04-16T10:26:02.261Z,102732.81
2023-04-16T10:28:29.569Z,102741.41
2023-04-16T10:30:58.211Z,102717.34
2023-04-16T10:33:30.342Z,102742.91
2023-04-16T10:36:22.738Z,102746.31
2023-04-16T10:38:56.769Z,102748.03
2023-04-16T10:41:23.403Z,102748.91
2023-04-16T10:43:51.052Z,102750.59
2023-04-16T10:46:31.508Z,102762.94
2023-04-16T10:49:02.653Z,102762.94
2023-04-16T10:51:34.493Z,102755.91
2023-04-16T10:54:19.701Z,102759.44
2023-04-16T10:56:47.653Z,102759.34
2023-04-16T10:59:18.737Z,102752.41
2023-04-16T11:01:48.648Z,102754.00
2023-04-16T11:04:21.916Z,102752.22
2023-04-16T11:07:15.675Z,102739.41
2023-04-16T11:09:59.579Z,102757.44
2023-04-16T11:12:29.163Z,102760.09
2023-04-16T11:15:01.801Z,102758.25
2023-04-16T11:17:40.877Z,102759.09
2023-04-16T11:20:19.639Z,102754.63
2023-04-16T11:22:51.150Z,102754.63
2023-04-16T11:25:27.224Z,102760.81
2023-04-16T11:27:54.670Z,102759.97
2023-04-16T11:30:32.069Z,102760.72
2023-04-16T11:32:58.939Z,102759.75
2023-04-16T11:35:25.835Z,102763.16
2023-04-16T11:37:56.602Z,102757.09
2023-04-16T11:40:23.402Z,102762.22
2023-04-16T11:42:49.948Z,102755.19
2023-04-16T11:45:18.268Z,102758.69
2023-04-16T11:47:57.284Z,102759.34
2023-04-16T11:50:28.167Z,102765.53
2023-04-16T11:52:57.002Z,102762.78
2023-04-16T11:55:24.358Z,102767.25
2023-04-16T11:57:52.164Z,102767.97
2023-04-16T12:00:19.313Z,102771.47
2023-04-16T12:02:53.334Z,102770.50
2023-04-16T12:05:35.071Z,102770.50
2023-04-16T12:08:07.215Z,102766.16
2023-04-16T12:10:35.718Z,102762.63
2023-04-16T12:13:14.766Z,102768.59
2023-04-16T12:15:59.468Z,102765.94
2023-04-16T12:18:29.422Z,102774.78
2023-04-16T12:20:56.092Z,102769.47
2023-04-16T12:23:30.773Z,102776.50
2023-04-16T12:26:02.538Z,102780.00
2023-04-16T12:28:34.283Z,102776.50
2023-04-16T12:31:01.553Z,102777.34
2023-04-16T12:33:28.394Z,102786.94
2023-04-16T12:35:55.159Z,102779.16
2023-04-16T12:38:24.111Z,102778.19
2023-04-16T12:40:51.487Z,102783.31
2023-04-16T12:43:18.358Z,102778.97
2023-04-16T12:45:45.017Z,102773.63
2023-04-16T12:48:11.605Z,102780.56
2023-04-16T12:50:39.787Z,102771.72
2023-04-16T12:53:06.479Z,102778.75
2023-04-16T12:55:33.142Z,102777.16
2023-04-16T12:57:59.712Z,102785.78
2023-04-16T13:00:26.310Z,102795.34
2023-04-16T13:02:53.025Z,102790.97
2023-04-16T13:05:19.769Z,102792.69
2023-04-16T13:07:46.489Z,102798.00
2023-04-16T13:10:13.686Z,102776.50
2023-04-16T13:12:40.613Z,102792.69
2023-04-16T13:15:07.829Z,102777.25
2023-04-16T13:17:34.455Z,102793.44
2023-04-16T13:20:01.108Z,102774.50
2023-04-16T13:22:28.167Z,102787.25
2023-04-16T13:24:55.461Z,102792.38
2023-04-16T13:27:22.026Z,102790.56
2023-04-16T13:29:48.595Z,102782.59
2023-04-16T13:32:15.490Z,102780.97
2023-04-16T13:34:42.584Z,102778.00
2023-04-16T13:37:09.143Z,102775.34
2023-04-16T13:39:35.780Z,102779.81
2023-04-16T13:42:02.730Z,102779.63
2023-04-16T13:44:29.591Z,102770.78
2023-04-16T13:46:56.354Z,102775.16
2023-04-16T13:49:23.487Z,102765.47
2023-04-16T13:51:50.645Z,102769.19
2023-04-16T13:54:17.280Z,102776.97
2023-04-16T13:56:44.091Z,102768.13
2023-04-16T13:59:10.996Z,102774.31
2023-04-16T14:01:37.923Z,102785.56
2023-04-16T14:04:06.799Z,102779.38
2023-04-16T14:06:34.900Z,102777.69
2023-04-16T14:09:01.948Z,102772.59
2023-04-16T14:11:28.740Z,102775.88
2023-04-16T14:13:55.606Z,102772.25
2023-04-16T14:16:22.266Z,102768.84
2023-04-16T14:18:48.903Z,102778.44
2023-04-16T14:21:15.680Z,102770.44
2023-04-16T14:23:42.250Z,102774.91
2023-04-16T14:26:08.879Z,102775.59
2023-04-16T14:28:35.858Z,102780.91
2023-04-16T14:31:02.547Z,102774.72
2023-04-16T14:33:29.338Z,102771.19
2023-04-16T14:35:56.101Z,102776.53
2023-04-16T14:38:22.732Z,102774.81
2023-04-16T14:40:49.502Z,102771.19
2023-04-16T14:43:16.144Z,102783.59
2023-04-16T14:45:42.781Z,102779.88
2023-04-16T14:48:09.525Z,102784.22
2023-04-16T14:50:43.528Z,102781.56
2023-04-16T14:53:12.111Z,102778.91
2023-04-16T14:55:38.811Z,102759.91
2023-04-16T14:58:05.544Z,102781.47
2023-04-16T15:00:34.196Z,102775.28
2023-04-16T15:03:01.125Z,102776.03
2023-04-16T15:05:27.855Z,102776.91
2023-04-16T15:07:55.138Z,102773.38
2023-04-16T15:10:21.787Z,102777.75
2023-04-16T15:12:48.308Z,102777.84
2023-04-16T15:15:14.983Z,102781.38
2023-04-16T15:17:43.283Z,102783.19
2023-04-16T15:20:10.519Z,102789.22
2023-04-16T15:22:37.289Z,102781.22
2023-04-16T15:25:05.304Z,102783.06
2023-04-16T15:27:31.821Z,102780.50
2023-04-16T15:29:58.389Z,102782.94
2023-04-16T15:32:25.162Z,102780.41
2023-04-16T15:34:51.821Z,102779.44
2023-04-16T15:37:18.401Z,102780.28
2023-04-16T15:39:44.975Z,102788.25
2023-04-16T15:42:11.730Z,102784.66
2023-04-16T15:44:38.307Z,102777.00
2023-04-16T15:47:06.359Z,102778.56
2023-04-16T15:49:32.937Z,102779.44
2023-04-16T15:51:59.665Z,102777.63
2023-04-16T15:54:26.408Z,102768.78
2023-04-16T15:56:52.969Z,102774.00
2023-04-16T15:59:19.507Z,102767.91
2023-04-16T16:01:46.356Z,102769.63
2023-04-16T16:04:13.019Z,102771.34
2023-04-16T16:06:39.721Z,102770.59
2023-04-16T16:09:06.292Z,102765.41
2023-04-16T16:11:32.922Z,102768.78
2023-04-16T16:14:01.485Z,102764.31
2023-04-16T16:16:28.750Z,102772.19
2023-04-16T16:18:55.704Z,102767.72
2023-04-16T16:21:22.301Z,102770.47
2023-04-16T16:23:48.927Z,102774.09
2023-04-16T16:26:15.499Z,102777.50
2023-04-16T16:28:43.890Z,102786.34
2023-04-16T16:31:12.240Z,102784.66
2023-04-16T16:33:40.376Z,102781.03
2023-04-16T16:36:10.475Z,102781.03
2023-04-16T16:38:37.327Z,102786.34
2023-04-16T16:41:03.853Z,102789.88
2023-04-16T16:43:30.453Z,102761.59
2023-04-16T16:45:56.975Z,102786.47
2023-04-16T16:48:23.532Z,102786.34
2023-04-16T16:50:50.161Z,102789.00
2023-04-16T16:53:16.807Z,102786.34
2023-04-16T16:55:43.365Z,102782.84
2023-04-16T16:58:09.954Z,102782.94
2023-04-16T17:00:37.695Z,102792.63
2023-04-16T17:03:04.564Z,102784.03
2023-04-16T17:05:31.265Z,102795.28
2023-04-16T17:07:57.859Z,102794.44
2023-04-16T17:10:24.468Z,102792.63
2023-04-16T17:12:51.158Z,102799.75
2023-04-16T17:15:21.155Z,102790.94
2023-04-16T17:17:48.562Z,102788.25
2023-04-16T17:20:15.739Z,102790.22
2023-04-16T17:22:42.651Z,102793.72
2023-04-16T17:25:09.503Z,102799.75
2023-04-16T17:27:36.278Z,102794.53
2023-04-16T17:30:05.378Z,102797.09
2023-04-16T17:32:32.787Z,102803.38
2023-04-16T17:35:01.127Z,102801.56
2023-04-16T17:37:28.074Z,102806.91
2023-04-16T17:39:54.766Z,102803.53
2023-04-16T17:42:21.718Z,102805.31
2023-04-16T17:44:48.359Z,102799.34
2023-04-16T17:47:14.980Z,102807.84
2023-04-16T17:49:41.542Z,102813.19
2023-04-16T17:52:08.134Z,102814.16
2023-04-16T17:54:34.678Z,102818.63
2023-04-16T17:57:01.820Z,102812.56
2023-04-16T17:59:28.406Z,102823.97
2023-04-16T18:01:55.192Z,102828.44
2023-04-16T18:04:21.979Z,102830.13
2023-04-16T18:06:48.792Z,102832.03
2023-04-16T18:09:15.593Z,102840.78
2023-04-16T18:11:42.159Z,102833.84
2023-04-16T18:14:10.005Z,102838.13
2023-04-16T18:16:36.917Z,102839.19
2023-04-16T18:19:03.480Z,102840.03
2023-04-16T18:21:30.514Z,102840.13
2023-04-16T18:23:57.621Z,102851.53
2023-04-16T18:26:25.229Z,102848.97
2023-04-16T18:28:52.135Z,102855.25
2023-04-16T18:31:21.101Z,102857.72
2023-04-16T18:33:56.815Z,102850.88
2023-04-16T18:36:24.556Z,102858.78
2023-04-16T18:39:01.127Z,102857.91
2023-04-16T18:41:29.233Z,102861.53
2023-04-16T18:43:55.998Z,102863.25
2023-04-16T18:46:22.670Z,102868.47
2023-04-16T18:48:49.284Z,102867.59
2023-04-16T18:51:16.702Z,102876.44
2023-04-16T18:53:45.425Z,102874.75
2023-04-16T18:56:12.354Z,102878.25
2023-04-16T18:58:38.925Z,102867.81
2023-04-16T19:01:11.047Z,102873.03
2023-04-16T19:03:38.165Z,102872.28
2023-04-16T19:06:05.927Z,102869.63
2023-04-16T19:08:32.571Z,102867.59
2023-04-16T19:10:59.158Z,102870.38
2023-04-16T19:13:25.980Z,102872.19
2023-04-16T19:15:58.165Z,102877.41
2023-04-16T19:18:24.995Z,102886.34
2023-04-16T19:20:51.649Z,102882.81
2023-04-16T19:23:19.171Z,102881.19
2023-04-16T19:25:45.887Z,102892.63
2023-04-16T19:28:12.404Z,102890.06
2023-04-16T19:30:40.314Z,102894.44
2023-04-16T19:33:06.946Z,102884.63
2023-04-16T19:35:34.649Z,102881.13
2023-04-16T19:38:01.194Z,102893.38
2023-04-16T19:40:27.795Z,102888.16
2023-04-16T19:42:54.934Z,102890.97
2023-04-16T19:45:25.689Z,102898.03
2023-04-16T19:47:52.358Z,102892.72
2023-04-16T19:50:19.215Z,102891.81
2023-04-16T19:52:45.810Z,102893.56
2023-04-16T19:55:12.858Z,102890.06
2023-04-16T19:57:39.423Z,102895.28
2023-04-16T20:00:11.073Z,102897.16
2023-04-16T20:02:38.191Z,102890.97
2023-04-16T20:05:05.433Z,102893.56
2023-04-16T20:07:32.092Z,102890.13
2023-04-16T20:09:58.761Z,102899.81
2023-04-16T20:12:25.384Z,102897.16
2023-04-16T20:14:52.014Z,102902.47
2023-04-16T20:17:19.706Z,102897.16
2023-04-16T20:19:49.655Z,102897.25
2023-04-16T20:22:18.264Z,102898.97
2023-04-16T20:24:47.751Z,102888.63
2023-04-16T20:27:15.121Z,102895.63
2023-04-16T20:29:41.885Z,102897.59
2023-04-16T20:32:08.468Z,102897.69
2023-04-16T20:34:35.004Z,102895.13
2023-04-16T20:37:01.574Z,102892.44
2023-04-16T20:39:28.189Z,102899.59
2023-04-16T20:41:57.617Z,102883.81
2023-04-16T20:44:26.257Z,102888.28
2023-04-16T20:46:54.882Z,102896.25
2023-04-16T20:49:21.644Z,102891.78
2023-04-16T20:51:48.291Z,102898.06
2023-04-16T20:54:14.860Z,102889.22
2023-04-16T20:56:41.648Z,102883.16
2023-04-16T20:59:08.202Z,102881.34
2023-04-16T21:01:35.290Z,102893.69
2023-04-16T21:04:02.056Z,102886.66
2023-04-16T21:06:32.782Z,102880.50
2023-04-16T21:08:59.375Z,102881.44
2023-04-16T21:11:26.332Z,102884.44
2023-04-16T21:13:52.898Z,102881.78
2023-04-16T21:16:19.471Z,102881.69
2023-04-16T21:18:46.208Z,102876.44
2023-04-16T21:21:12.738Z,102876.66
2023-04-16T21:23:39.288Z,102886.25
2023-04-16T21:26:05.883Z,102885.38
2023-04-16T21:28:32.526Z,102876.56
2023-04-16T21:30:59.143Z,102881.00
2023-04-16T21:33:25.744Z,102878.56
2023-04-16T21:35:53.391Z,102868.34
2023-04-16T21:38:20.977Z,102881.22
2023-04-16T21:40:53.903Z,102884.81
2023-04-16T21:43:20.906Z,102882.34
2023-04-16T21:45:47.530Z,102878.84
2023-04-16T21:48:14.225Z,102879.81
2023-04-16T21:50:40.851Z,102887.81
2023-04-16T21:53:07.427Z,102883.44
2023-04-16T21:55:34.834Z,102882.50
2023-04-16T21:58:02.141Z,102883.34
2023-04-16T22:00:28.996Z,102879.81
2023-04-16T22:03:00.102Z,102881.50
2023-04-16T22:05:26.839Z,102883.34
2023-04-16T22:07:53.429Z,102880.78
2023-04-16T22:10:20.346Z,102878.97
2023-04-16T22:12:46.955Z,102878.03
2023-04-16T22:15:14.020Z,102878.13
2023-04-16T22:17:41.122Z,102881.81
2023-04-16T22:20:14.154Z,102879.94
2023-04-16T22:22:41.536Z,102875.56
2023-04-16T22:25:08.521Z,102878.22
2023-04-16T22:27:35.448Z,102878.41
2023-04-16T22:30:02.901Z,102874.59
2023-04-16T22:32:30.318Z,102873.09
2023-04-16T22:34:56.970Z,102880.03
2023-04-16T22:37:23.621Z,102868.72
2023-04-16T22:39:50.301Z,102877.34
2023-04-16T22:42:16.875Z,102881.81
2023-04-16T22:44:43.412Z,102875.75
2023-04-16T22:47:09.959Z,102877.56
2023-04-16T22:49:36.506Z,102874.22
2023-04-16T22:52:03.333Z,102881.16
2023-04-16T22:54:33.450Z,102879.47
2023-04-16T22:56:59.993Z,102876.03
2023-04-16T22:59:26.551Z,102877.75
2023-04-16T23:01:53.310Z,102876.91
2023-04-16T23:04:20.096Z,102883.06
2023-04-16T23:06:46.781Z,102876.13
2023-04-16T23:09:13.650Z,102878.69
2023-04-16T23:11:40.598Z,102887.63
2023-04-16T23:14:08.352Z,102876.91
2023-04-16T23:16:35.018Z,102885.72
2023-04-16T23:19:01.615Z,102884.88
2023-04-16T23:21:28.153Z,102890.94
2023-04-16T23:23:55.062Z,102889.25
2023-04-16T23:26:21.574Z,102887.63
2023-04-16T23:28:48.242Z,102887.63
2023-04-16T23:31:14.816Z,102885.81
2023-04-16T23:33:41.489Z,102885.81
2023-04-16T23:36:08.640Z,102893.72
2023-04-16T23:38:35.215Z,102887.63
2023-04-16T23:41:01.757Z,102889.44
2023-04-16T23:43:28.330Z,102891.16
2023-04-16T23:45:54.926Z,102892.94
2023-04-16T23:48:21.778Z,102889.56
2023-04-16T23:50:48.326Z,102886.91
2023-04-16T23:53:14.990Z,102898.28
2023-04-16T23:55:41.513Z,102893.06
2023-04-16T23:58:08.066Z,102894.88
